Julian Carroll Airport
KJKL : now visible

Airfield :











YOU CAN JOIN US ON...

 
LOGIN :

Register | Disclaimer

   EN    FR    IT 

 









Legend :    VFR   Marginal VFR   IFR   Intensive IFR   Very Intensive IFR
Visi :
Ceiling :
>= 8 km
>= 3000ft
5 to 8 km
1000 to 3000 ft
1500m to 5 km
500 to 1000 ft
800 to 1500m
200 to 500 ft
< 800m
< 200 ft
Symbols :   Thunderstorms  Fog  Heavy snow  Heavy precipitations  Wind > 20 kt






- Airport Elevation : 1381 ft


KJKL - Julian Carroll

CURRENT METAR :
  • 212353Z AUTO VRB06KT 10SM SCT050 09/M03 A3007 RMK AO2 SLP185 T00891028 10139 20089 53007 $

EXPIRED METARs :
  • 212253Z AUTO VRB04KT 10SM BKN055 11/M02 A3006 RMK AO2 SLP180 T01111017 $
  • 212153Z AUTO VRB05KT 10SM FEW055 11/M02 A3005 RMK AO2 SLP177 T01111022 $
  • 212053Z AUTO 31009KT 10SM FEW060 12/M02 A3005 RMK AO2 SLP176 T01171022 56010 $
  • 211953Z AUTO 10SM BKN055 13/M02 A3006 RMK AO2 SLP178 T01281017 $

TAF KJKL
Valid from the 21 at 20:00 until the 22 at 18:00 UTC


211839Z 2120/2218 31006KT P6SM SCT050
FM220400 00000KT P6SM SKC
KZID FIR / North America



MET'MAP, your aeronautical weather chart ! - Copyright ORBIFLY December 2007 - Disclaimer

ORBIFLY MET'MAP TEAM :

Programming & Development : Alexandra Zaïnal
Original concept : Baudouin d'Aumeries
Technical & hardware support : Manuel Goepfert
Assistance : Marc-Olivier Méhu




SOURCES & CREDITS :

   NOAA       Earth
Advisory